الصفحة الرئيسية
METAR-TAF:

METAR-TAF

مطار :

بروناي, بروناي

دائرة عرض: 04-56N, خط طول: 114-56E, ارتفاع: 22 متر

مراقبة الطقس الحالي

تاريخ ووقت الإصدار 54 دقيقة قبل الساعة 12:30UTC
ريح 3 عقدة من الشمال
درجة الحرارة 30°درجة مئوية
الرطوبة 66%
ضغط 1010 hPa
الرؤية 10 كم أو أكثر
غيوم قليلة على ارتفاع 1500 قدم
غيوم مفككة على ارتفاع 30000 قدم

METAR: WBSB 201230Z 01003KT 9999 FEW015 BKN300 30/23 Q1010 NOSIG

زمن: 21:24 (13:24 UTC)

توقعات

تاريخ ووقت الإصدار 2ساعات و 24 دقيقة قبل الساعة 11:00UTC
التوقعات صالحة من20 الساعة 12 UTC إلى 21 الساعة 18 UTC
ريح 2 عقدة من الشمال/الشمال الغربي
الرؤية 10 كم أو أكثر
غيوم قليلة على ارتفاع 1500 قدم
غيوم قليلة على ارتفاع 1600 قدم, مزنة ركامية.
أصبح
من 20 الساعة 18 UTC إلى 20 الساعة 20 UTC
ريح 2 عقدة من الشرق/الشمال الشرقي
غيوم قليلة على ارتفاع 400 قدم
غيوم قليلة على ارتفاع 1500 قدم, مزنة ركامية.
مؤقت
من 20 الساعة 18 UTC إلى 20 الساعة 20 UTC
الرؤية: 8000 متر
عاصفة رعدية, مطر خفيف,

TAF: WBSB 201100Z 2012/2118 34002KT 9999 FEW015 FEW016CB BECMG 2018/2020 07002KT FEW004 FEW015CB TEMPO 2018/2020 8000 -TSRA

أرصاد الطقس والتوقعات من أكثر من 4000 مطار (تقارير الطقس للمطار METAR والتنبؤ بالطقس بالمطارTAF).

المحطات المتاحة هي النقط الصفراء والحمراء على الخريطة.

حرك المؤشر فوق النقطة لمعرفة اسم المحطة.

ثم انقر لمعرفة أرصاد وتوقعات الطقس.

لتغيير الخارطة: اضغط على الأزرار الخضراء مع رمز الصليب الأسود للتكبير. على الزر الأخضر مع شرطة للتصغير، أو على الأسهم الخضراء للخرائط المجاورة.


METAR-TAF: